Nearby METAR Reports

 

KMTN - Baltimore/Martin, Maryland, USA
Distance from station: SSE 8mi, 13km
Updated: Thu, 28-May-2015 8:45am EDT
Partly cloudy
Partly cloudy
 Wind from WSW
Wind: WSW 6 mph , 9 km/h
Temperature: 75°F , 24°C
Dew Point: 72°F , 22°C
Humidity: 89%
Barometer: 30.19 inHg , 1022.4 hPa
Clouds: Partly cloudy
Visibility: 10 miles , 16 km
Cloud details: Partly cloudy 20000 ft
2015/05/28 12:45 KMTN 281245Z 24005KT 10SM SCT200 24/22 A3019
KDMH - Baltimore/Dwntwn, Maryland, USA
Distance from station: SW 12mi, 19km
Updated: Thu, 28-May-2015 8:54am EDT

 
Temperature: 79°F , 26°C
Dew Point: 68°F , 20°C
Humidity: 70%
Barometer: 30.18 inHg , 1022 hPa
2015/05/28 12:54 KDMH 281254Z AUTO 26/20 A3018 RMK AO1 SLP219 T02560200
 
KBWI - Balto/Wash Intl, Maryland, USA
Distance from station: SSW 20mi, 33km
Updated: Thu, 28-May-2015 8:54am EDT
Mostly cloudy
Mostly cloudy
 Wind from varies
Wind: varies 6 mph , 9 km/h
Temperature: 75°F , 24°C
Dew Point: 68°F , 20°C
Humidity: 78%
Barometer: 30.18 inHg , 1022 hPa
Clouds: Mostly cloudy
Visibility: 10 miles , 16 km
Cloud details: Partly cloudy 10000 ft
Partly cloudy 12000 ft
Mostly cloudy 15000 ft
Mostly cloudy 25000 ft
2015/05/28 12:54 KBWI 281254Z VRB05KT 10SM SCT100 SCT120 BKN150 BKN250 24/20 A3018 RMK AO2 SLP218 T02440200
KDMW - Carroll Cnty, Maryland, USA
Distance from station: WNW 30mi, 48km
Updated: Thu, 28-May-2015 9:30am EDT
Clear
Clear
 Wind from WSW
Wind: WSW 6 mph , 9 km/h
Temperature: 77°F , 25°C
Dew Point: 72°F , 22°C
Humidity: 83%
Barometer: 30.20 inHg , 1022.7 hPa
Clouds: Clear
Visibility: 10 miles , 16 km
2015/05/28 13:30 KDMW 281330Z AUTO 24005KT 10SM CLR 25/22 A3020 RMK AO2
 
KNAK - Annapolis/Naval, Maryland, USA
Distance from station: S 30mi, 48km
Updated: Thu, 28-May-2015 8:54am EDT
Clear
Clear
 Wind from WSW
Wind: WSW 6 mph , 9 km/h
Temperature: 75°F , 24°C
Dew Point: 66°F , 19°C
Humidity: 74%
Barometer: 30.18 inHg , 1022 hPa
Clouds: Clear
Visibility: 10 miles , 16 km
2015/05/28 12:54 KNAK 281254Z AUTO 24005KT 10SM CLR 24/19 A3018 RMK AO2 SLP222 T02390194
KW29 - Stevensville, Maryland, USA
Distance from station: SSE 31mi, 50km
Updated: Thu, 28-May-2015 9:32am EDT

 Wind from SW
Wind: SW 5 mph , 7 km/h
Barometer: 30.19 inHg , 1022.4 hPa
Visibility: 10 miles , 16 km
2015/05/28 13:32 KW29 281332Z AUTO 22004KT 10SM A3019 RMK AO1
 
KCGS - College Park, Maryland, USA
Distance from station: SW 38mi, 61km
Updated: Thu, 28-May-2015 8:30am EDT
NOT Current
Clear
Clear
 Wind from calm
Wind: Calm
Temperature: 75°F , 24°C
Dew Point: 70°F , 21°C
Humidity: 83%
Barometer: 30.18 inHg , 1022 hPa
Clouds: Clear
Visibility: 10 miles , 16 km
2015/05/28 12:30 KCGS 281230Z AUTO 00000KT 10SM CLR 24/21 A3018 RMK AO1
KGAI - Gaithersburg, Maryland, USA
Distance from station: WSW 40mi, 65km
Updated: Thu, 28-May-2015 9:35am EDT
Clear
Clear
 Wind from WSW
Wind: WSW 3 mph , 6 km/h
Temperature: 75°F , 24°C
Dew Point: 68°F , 20°C
Humidity: 78%
Barometer: 30.24 inHg , 1024 hPa
Clouds: Clear
Visibility: 10 miles , 16 km
2015/05/28 13:35 KGAI 281335Z AUTO 25003KT 10SM CLR 24/20 A3024 RMK AO1
 
KTHV - York, Pennsylvania, USA
Distance from station: NNW 40mi, 65km
Updated: Thu, 28-May-2015 8:53am EDT
Clear
Clear
 Wind from SW
Wind: SW 3 mph , 6 km/h
Temperature: 75°F , 24°C
Dew Point: 70°F , 21°C
Humidity: 83%
Barometer: 30.18 inHg , 1022 hPa
Clouds: Clear
Visibility: 10 miles , 16 km
2015/05/28 12:53 KTHV 281253Z AUTO 23003KT 10SM CLR 24/21 A3018 RMK AO2 SLP219 T02390206
KFDK - Frederick, Maryland, USA
Distance from station: W 47mi, 75km
Updated: Thu, 28-May-2015 8:45am EDT
Clear
Clear
 Wind from SSW
Wind: SSW 7 mph , 11 km/h
Temperature: 75°F , 24°C
Dew Point: 70°F , 21°C
Humidity: 83%
Barometer: 30.21 inHg , 1023 hPa
Clouds: Clear
Visibility: 10 miles , 16 km
2015/05/28 12:45 KFDK 281245Z 21006KT 10SM SKC 24/21 A3021
 
KESN - Easton/Newnam, Maryland, USA
Distance from station: SSE 48mi, 78km
Updated: Thu, 28-May-2015 8:50am EDT
Mostly cloudy
Mostly cloudy
 Wind from SW
Wind: SW 7 mph , 11 km/h
Temperature: 77°F , 25°C
Dew Point: 72°F , 22°C
Humidity: 83%
Barometer: 30.23 inHg , 1023.7 hPa
Clouds: Mostly cloudy
Visibility: 10 miles , 16 km
Cloud details: Mostly cloudy 1200 ft
Mostly cloudy 15000 ft
2015/05/28 12:50 KESN 281250Z 22006KT 10SM BKN012 BKN150 25/22 A3023
KDCA - Washington/Natl, Washington D.c., USA
Distance from station: SW 49mi, 79km
Updated: Thu, 28-May-2015 8:52am EDT
Overcast
Overcast
 Wind from SSW
Wind: SSW 6 mph , 9 km/h
Temperature: 77°F , 25°C
Dew Point: 68°F , 20°C
Humidity: 74%
Barometer: 30.20 inHg , 1022.7 hPa
Clouds: Overcast
Visibility: 10 miles , 16 km
Cloud details: Few Clouds 1000 ft
Partly cloudy 12000 ft
Overcast 25000 ft
2015/05/28 12:52 KDCA 281252Z 20005KT 10SM FEW010 SCT120 OVC250 25/20 A3020 RMK AO2 SLP226 T02500200
 
KLNS - Lancaster, Pennsylvania, USA
Distance from station: N 49mi, 79km
Updated: Thu, 28-May-2015 9:00am EDT
Haze, Overcast
Haze, Overcast
 Wind from calm
Wind: Calm
Temperature: 73°F , 23°C
Dew Point: 68°F , 20°C
Humidity: 83%
Barometer: 30.18 inHg , 1022 hPa
Summary: Haze
Clouds: Overcast
Visibility: 4 miles , 6 km
Cloud details: Overcast 1000 ft
2015/05/28 13:00 KLNS 281300Z 00000KT 4SM HZ OVC010 23/20 A3018 RMK AO2 CIG 008V012 T02280200
KILG - Wilmington, Delaware, USA
Distance from station: ENE 50mi, 81km
Updated: Thu, 28-May-2015 8:51am EDT
Overcast
Overcast
 Wind from W
Wind: W 6 mph , 9 km/h
Temperature: 75°F , 24°C
Dew Point: 70°F , 21°C
Humidity: 83%
Barometer: 30.18 inHg , 1022 hPa
Clouds: Overcast
Visibility: 10 miles , 16 km
Cloud details: Overcast 1100 ft
2015/05/28 12:51 KILG 281251Z 26005KT 10SM OVC011 24/21 A3018 RMK AO2 SLP221 T02390206